Terminal Aerodrome Forecast
Issued by NWS Twin Cities, MN

Home | Current Version | Previous Version | Graphics & Text | Print | Product List | Glossary On
Versions: 1 2 3 4 5 6 7 8 9 10 11 12 13 14 15 16
488
FTUS43 KMPX 120520
TAFSTC
TAF
KSTC 120520Z 1206/1306 31007KT P6SM SCT030 OVC040
     FM121200 32013KT P6SM SCT250
     FM121500 33015G22KT P6SM SKC
     FM122200 32009KT P6SM SKC=

USA.gov is the U.S. government's official web portal to all federal, state and local government web resources and services.